Авиационная погода в Актобе

Регион: 
Погода METAR: 
UATT 221800Z 09002MPS 9999 FEW020 M17/M20 Q1029 NOSIG RMK QFE752/1002
Время наблюдения
2022-01-22T18:00:00Z
Температура C
-17.0
Точка росы
-20.0
Направление ветра
90
Скорость ветра (узлы)
4
Метео видимость
6.21
Облачность
FEW
Нижняя граница облачности (футы)
2000
Явления погоды
Условия полета
VFR
Аэропорт подробнее: 
FEW – незначительная облачность;